Time;durP1;ratioP1;P1;durP2;ratioP2;P2;SDS_P1;SDS_P2;PMS_P1;PMS_P2;Temp;Humidity;BMP_temperature;BMP_pressure;BME280_temperature;BME280_humidity;BME280_pressure;Samples;Min_cycle;Max_cycle;Signal;HPM_P1;HPM_P2
2021/04/15 00:00:33;;;;;;;;;;;6.00;39.90;;;;;;5001143;28;19968;-84
2021/04/15 00:02:50;;;;;;;;;;;5.90;39.90;;;;;;5021636;28;19917;-85
2021/04/15 00:05:21;;;;;;;;;;;5.80;39.90;;;;;;5016417;28;20274;-83
2021/04/15 00:07:47;;;;;;;;;;;5.80;40.00;;;;;;5016536;28;19921;-84
2021/04/15 00:10:12;;;;;;;;;;;5.70;40.00;;;;;;5016585;28;19913;-84
2021/04/15 00:12:38;;;;;;;;;;;5.60;40.00;;;;;;4998395;28;20380;-83
2021/04/15 00:15:08;;;;;;;;;;;5.50;40.10;;;;;;5016596;28;19952;-84
2021/04/15 00:18:00;;;;;;;;;;;;;;;;;;;;;
2021/04/15 00:20:43;;;;;;;;;;;5.40;40.20;;;;;;4997528;28;19913;-83
2021/04/15 00:23:25;;;;;;;;;;;5.30;40.30;;;;;;4999340;28;19926;-85
2021/04/15 00:25:53;;;;;;;;;;;5.30;40.30;;;;;;4999701;28;19913;-83
2021/04/15 00:28:42;;;;;;;;;;;5.20;40.40;;;;;;4995310;28;20389;-83
2021/04/15 00:31:30;;;;;;;;;;;5.20;40.40;;;;;;5001617;28;19910;-84
2021/04/15 00:34:18;;;;;;;;;;;5.10;40.40;;;;;;5015446;28;20300;-83
2021/04/15 00:37:05;;;;;;;;;;;5.10;40.50;;;;;;5017404;28;19913;-84
2021/04/15 00:40:00;;;;;;;;;;;;;;;;;;;;;
2021/04/15 00:42:38;;;;;;;;;;;4.90;40.50;;;;;;5014732;28;19917;-84
2021/04/15 00:45:07;;;;;;;;;;;4.90;40.60;;;;;;5018134;28;19956;-89
2021/04/15 00:47:44;;;;;;;;;;;4.80;40.60;;;;;;4994201;28;20004;-84
2021/04/15 00:50:26;;;;;;;;;;;4.80;40.70;;;;;;5015944;28;19940;-84
2021/04/15 00:56:30;;;;;;;;;;;4.70;40.70;;;;;;5012761;28;19917;-84
2021/04/15 00:59:16;;;;;;;;;;;4.60;40.70;;;;;;5016079;28;20004;-85
2021/04/15 01:01:46;;;;;;;;;;;4.60;40.70;;;;;;5016588;28;19968;-85
2021/04/15 01:04:28;;;;;;;;;;;4.60;40.80;;;;;;4998117;28;19910;-85
2021/04/15 01:06:54;;;;;;;;;;;4.60;40.80;;;;;;4999110;28;19913;-83
2021/04/15 01:09:27;;;;;;;;;;;4.50;40.80;;;;;;4998716;28;19913;-83
2021/04/15 01:12:04;;;;;;;;;;;4.40;40.80;;;;;;5009629;28;19914;-83
2021/04/15 01:20:43;;;;;;;;;;;4.30;40.90;;;;;;4999167;28;19920;-83
2021/04/15 01:23:13;;;;;;;;;;;4.30;41.00;;;;;;5016504;28;19914;-82
2021/04/15 01:25:53;;;;;;;;;;;4.30;41.00;;;;;;4998767;28;20028;-84
2021/04/15 01:28:21;;;;;;;;;;;4.20;40.90;;;;;;5008048;28;19925;-84
2021/04/15 01:31:25;;;;;;;;;;;4.20;41.00;;;;;;5015606;28;19916;-84
2021/04/15 01:36:46;;;;;;;;;;;4.10;41.00;;;;;;5011585;28;19917;-83
2021/04/15 01:39:33;;;;;;;;;;;;;;;;;;;;;
2021/04/15 01:42:12;;;;;;;;;;;4.10;41.20;;;;;;4998601;28;20449;-85
2021/04/15 01:44:44;;;;;;;;;;;4.00;41.10;;;;;;5000621;28;19913;-83
2021/04/15 01:47:15;;;;;;;;;;;4.00;41.20;;;;;;5001283;28;19953;-87
2021/04/15 01:50:10;;;;;;;;;;;3.90;41.20;;;;;;5020205;28;20024;-84
2021/04/15 01:52:39;;;;;;;;;;;3.90;41.30;;;;;;4999100;28;20397;-84
2021/04/15 01:55:25;;;;;;;;;;;3.90;41.30;;;;;;5016223;28;19940;-85
2021/04/15 01:58:18;;;;;;;;;;;;;;;;;;;;;
2021/04/15 02:01:03;;;;;;;;;;;3.80;41.30;;;;;;5011207;28;19914;-85
2021/04/15 02:03:49;;;;;;;;;;;3.80;41.30;;;;;;5019542;28;19913;-87
2021/04/15 02:06:38;;;;;;;;;;;3.80;41.40;;;;;;5019989;28;19913;-84
2021/04/15 02:09:16;;;;;;;;;;;;;;;;;;;;;
2021/04/15 02:12:02;;;;;;;;;;;3.70;41.40;;;;;;5009834;28;19992;-83
2021/04/15 02:14:50;;;;;;;;;;;3.60;41.40;;;;;;5007209;28;19924;-85
2021/04/15 02:17:35;;;;;;;;;;;3.60;41.50;;;;;;5018673;28;19948;-84
2021/04/15 02:25:46;;;;;;;;;;;3.50;41.60;;;;;;5014172;28;19913;-84
2021/04/15 02:28:35;;;;;;;;;;;3.50;41.60;;;;;;5017830;28;19936;-85
2021/04/15 02:31:20;;;;;;;;;;;3.40;41.60;;;;;;4998997;28;20329;-84
2021/04/15 02:34:01;;;;;;;;;;;3.40;41.60;;;;;;5016770;28;19923;-84
2021/04/15 02:36:29;;;;;;;;;;;3.40;41.70;;;;;;5000381;28;19918;-85
2021/04/15 02:38:57;;;;;;;;;;;3.40;41.80;;;;;;5017087;28;19913;-83
2021/04/15 02:41:27;;;;;;;;;;;3.30;41.70;;;;;;5018138;28;20364;-84
2021/04/15 02:43:55;;;;;;;;;;;3.30;41.70;;;;;;5003830;28;19956;-83
2021/04/15 02:46:24;;;;;;;;;;;3.30;41.80;;;;;;5004822;28;20362;-86
2021/04/15 02:48:50;;;;;;;;;;;3.20;41.80;;;;;;4990706;28;19925;-85
2021/04/15 02:51:22;;;;;;;;;;;3.20;41.90;;;;;;5000041;28;20378;-82
2021/04/15 02:53:53;;;;;;;;;;;3.20;41.90;;;;;;5011377;28;19917;-84
2021/04/15 02:56:31;;;;;;;;;;;3.20;41.90;;;;;;4996202;28;20001;-83
2021/04/15 02:59:02;;;;;;;;;;;3.10;41.90;;;;;;5017772;28;19997;-83
2021/04/15 03:01:30;;;;;;;;;;;3.10;41.90;;;;;;5021433;28;19928;-86
2021/04/15 03:03:57;;;;;;;;;;;3.00;41.90;;;;;;5000440;28;20282;-83
2021/04/15 03:06:30;;;;;;;;;;;3.00;42.00;;;;;;5012024;28;19914;-84
2021/04/15 03:08:57;;;;;;;;;;;3.00;42.00;;;;;;5019426;28;19909;-84
2021/04/15 03:11:25;;;;;;;;;;;2.90;42.00;;;;;;5015273;28;19914;-83
2021/04/15 03:13:55;;;;;;;;;;;2.90;42.00;;;;;;5018358;28;19913;-84
2021/04/15 03:16:24;;;;;;;;;;;2.90;42.10;;;;;;5002887;28;19914;-84
2021/04/15 03:18:53;;;;;;;;;;;2.90;42.10;;;;;;5001296;28;19917;-85
2021/04/15 03:21:25;;;;;;;;;;;2.90;42.20;;;;;;4999424;28;19917;-83
2021/04/15 03:23:53;;;;;;;;;;;2.80;42.10;;;;;;5019177;28;20333;-84
2021/04/15 03:26:25;;;;;;;;;;;2.80;42.10;;;;;;5029468;28;19924;-85
2021/04/15 03:29:11;;;;;;;;;;;2.80;42.10;;;;;;5019967;28;19910;-83
2021/04/15 03:31:42;;;;;;;;;;;2.80;42.20;;;;;;5008049;28;20467;-84
2021/04/15 03:34:12;;;;;;;;;;;2.80;42.20;;;;;;5001259;28;19920;-84
2021/04/15 03:36:39;;;;;;;;;;;2.80;42.20;;;;;;5019548;28;20289;-85
2021/04/15 03:39:11;;;;;;;;;;;2.80;42.20;;;;;;5014372;28;19996;-84
2021/04/15 03:41:36;;;;;;;;;;;2.80;42.30;;;;;;5017932;28;19953;-84
2021/04/15 03:44:05;;;;;;;;;;;2.70;42.30;;;;;;5018667;28;19939;-84
2021/04/15 03:46:34;;;;;;;;;;;2.70;42.30;;;;;;5018818;28;19914;-84
2021/04/15 03:49:04;;;;;;;;;;;2.70;42.40;;;;;;5000051;28;19917;-83
2021/04/15 03:51:36;;;;;;;;;;;2.70;42.40;;;;;;5018364;28;19952;-83
2021/04/15 03:54:04;;;;;;;;;;;2.70;42.40;;;;;;5017730;28;19939;-85
2021/04/15 03:56:38;;;;;;;;;;;2.60;42.40;;;;;;5019324;28;19956;-83
2021/04/15 03:59:14;;;;;;;;;;;2.60;42.40;;;;;;5016557;28;19916;-84
2021/04/15 04:01:45;;;;;;;;;;;2.60;42.50;;;;;;5025996;28;19909;-84
2021/04/15 04:04:19;;;;;;;;;;;2.60;42.50;;;;;;5020154;28;19916;-83
2021/04/15 04:06:45;;;;;;;;;;;2.50;42.40;;;;;;5019803;28;19909;-83
2021/04/15 04:09:22;;;;;;;;;;;2.40;42.40;;;;;;5018967;28;19973;-84
2021/04/15 04:11:49;;;;;;;;;;;2.40;42.50;;;;;;5017998;28;19909;-83
2021/04/15 04:14:24;;;;;;;;;;;2.40;42.60;;;;;;4998803;28;20336;-82
2021/04/15 04:17:25;;;;;;;;;;;2.40;42.70;;;;;;5005989;28;19921;-84
2021/04/15 04:19:54;;;;;;;;;;;2.40;42.70;;;;;;4983367;28;20008;-83
2021/04/15 04:22:35;;;;;;;;;;;2.40;42.70;;;;;;5017115;28;19909;-84
2021/04/15 04:25:19;;;;;;;;;;;2.40;42.70;;;;;;5026311;28;20331;-83
2021/04/15 04:28:11;;;;;;;;;;;2.30;42.70;;;;;;5016029;28;20000;-83
2021/04/15 04:30:57;;;;;;;;;;;2.20;42.60;;;;;;4993817;28;19914;-85
2021/04/15 04:33:26;;;;;;;;;;;2.20;42.70;;;;;;4998009;28;20274;-84
2021/04/15 04:35:56;;;;;;;;;;;2.20;42.70;;;;;;5015651;28;19945;-84
2021/04/15 04:38:21;;;;;;;;;;;2.20;42.80;;;;;;4998233;28;19964;-85
2021/04/15 04:40:55;;;;;;;;;;;2.20;42.80;;;;;;5015718;28;19918;-83
2021/04/15 04:43:32;;;;;;;;;;;2.20;42.90;;;;;;4997465;28;19956;-83
2021/04/15 04:46:02;;;;;;;;;;;2.20;42.90;;;;;;5016543;28;20038;-84
2021/04/15 04:48:30;;;;;;;;;;;2.30;43.00;;;;;;5014407;28;19971;-85
2021/04/15 04:51:08;;;;;;;;;;;2.30;43.00;;;;;;5015506;28;19914;-86
2021/04/15 04:53:35;;;;;;;;;;;2.40;43.00;;;;;;5014258;28;19967;-86
2021/04/15 04:56:03;;;;;;;;;;;2.40;43.00;;;;;;5015210;28;19914;-84
2021/04/15 04:58:29;;;;;;;;;;;2.50;43.00;;;;;;5015665;28;19917;-84
2021/04/15 05:00:57;;;;;;;;;;;2.60;43.00;;;;;;5011408;28;19913;-85
2021/04/15 05:03:23;;;;;;;;;;;2.60;43.00;;;;;;5029706;28;19913;-84
2021/04/15 05:05:49;;;;;;;;;;;2.70;43.00;;;;;;5015907;28;19921;-85
2021/04/15 05:08:20;;;;;;;;;;;2.80;42.90;;;;;;5014295;28;19913;-86
2021/04/15 05:10:49;;;;;;;;;;;2.90;42.90;;;;;;5014549;28;19968;-83
2021/04/15 05:13:16;;;;;;;;;;;3.00;42.90;;;;;;4996570;28;19917;-85
2021/04/15 05:15:42;;;;;;;;;;;3.10;42.80;;;;;;5013839;28;19917;-83
2021/04/15 05:18:14;;;;;;;;;;;3.20;42.80;;;;;;5017408;28;19974;-85
2021/04/15 05:20:42;;;;;;;;;;;3.30;42.80;;;;;;5013405;28;20016;-85
2021/04/15 05:23:22;;;;;;;;;;;3.40;42.70;;;;;;4991387;28;19914;-82
2021/04/15 05:26:06;;;;;;;;;;;3.60;42.70;;;;;;5022374;28;19967;-86
2021/04/15 05:28:34;;;;;;;;;;;3.80;42.60;;;;;;5025817;28;19949;-84
2021/04/15 05:31:02;;;;;;;;;;;4.00;42.50;;;;;;5011601;28;19921;-84
2021/04/15 05:33:28;;;;;;;;;;;4.20;42.40;;;;;;5020893;28;20140;-83
2021/04/15 05:36:00;;;;;;;;;;;4.40;42.40;;;;;;5011245;28;19990;-84
2021/04/15 05:38:26;;;;;;;;;;;6.30;43.10;;;;;;5018969;28;20405;-84
2021/04/15 05:40:52;;;;;;;;;;;10.10;40.80;;;;;;5019051;28;19913;-86
2021/04/15 05:43:21;;;;;;;;;;;13.50;38.10;;;;;;5012203;28;19918;-85
2021/04/15 05:45:48;;;;;;;;;;;15.40;35.10;;;;;;5027620;28;19914;-87
2021/04/15 05:48:14;;;;;;;;;;;16.30;34.80;;;;;;5009459;28;19918;-86
2021/04/15 05:50:44;;;;;;;;;;;18.10;34.70;;;;;;5027356;28;19917;-87
2021/04/15 05:53:09;;;;;;;;;;;21.40;33.90;;;;;;5026160;28;19914;-86
2021/04/15 05:55:40;;;;;;;;;;;24.50;32.70;;;;;;5004659;28;19914;-86
2021/04/15 05:58:10;;;;;;;;;;;27.00;31.40;;;;;;5021636;28;19992;-86
2021/04/15 06:00:43;;;;;;;;;;;29.10;30.50;;;;;;5024749;28;19910;-90
2021/04/15 06:03:28;;;;;;;;;;;30.80;30.00;;;;;;5019935;28;19925;-87
2021/04/15 06:05:56;;;;;;;;;;;32.40;29.70;;;;;;5007213;28;19967;-87
2021/04/15 06:08:22;;;;;;;;;;;33.80;29.30;;;;;;5019185;28;19910;-87
2021/04/15 06:10:48;;;;;;;;;;;34.60;29.00;;;;;;5005201;28;19921;-87
2021/04/15 06:13:25;;;;;;;;;;;35.30;28.80;;;;;;5019306;28;19910;-84
2021/04/15 06:15:54;;;;;;;;;;;36.00;28.70;;;;;;5019329;28;19917;-84
2021/04/15 06:18:25;;;;;;;;;;;36.90;28.60;;;;;;5021404;28;19914;-83
2021/04/15 06:20:56;;;;;;;;;;;37.60;28.50;;;;;;5025518;28;19968;-84
2021/04/15 06:23:23;;;;;;;;;;;38.30;28.20;;;;;;5025258;28;19932;-84
2021/04/15 06:25:49;;;;;;;;;;;38.90;28.10;;;;;;5017063;28;19922;-89
2021/04/15 06:28:19;;;;;;;;;;;39.40;28.10;;;;;;5033334;28;19914;-84
2021/04/15 06:30:53;;;;;;;;;;;39.90;27.90;;;;;;5036537;28;19914;-85
2021/04/15 06:33:19;;;;;;;;;;;40.40;27.80;;;;;;5007317;28;19976;-84
2021/04/15 06:35:46;;;;;;;;;;;41.10;27.70;;;;;;5027255;28;19917;-84
2021/04/15 06:38:20;;;;;;;;;;;41.50;27.60;;;;;;5006252;28;19914;-85
2021/04/15 06:41:04;;;;;;;;;;;41.90;27.50;;;;;;5018454;28;19914;-85
2021/04/15 06:43:32;;;;;;;;;;;42.50;27.50;;;;;;5022916;28;19914;-84
2021/04/15 06:45:57;;;;;;;;;;;43.10;27.50;;;;;;5024770;28;20435;-84
2021/04/15 06:48:26;;;;;;;;;;;43.60;27.50;;;;;;5025963;28;19918;-84
2021/04/15 06:50:52;;;;;;;;;;;43.80;27.40;;;;;;5025806;28;19913;-86
2021/04/15 06:53:36;;;;;;;;;;;44.10;27.30;;;;;;5020410;28;19924;-85
2021/04/15 06:56:20;;;;;;;;;;;44.50;27.30;;;;;;5025165;28;19948;-85
2021/04/15 06:58:45;;;;;;;;;;;44.90;27.20;;;;;;5033356;28;19968;-85
2021/04/15 07:01:29;;;;;;;;;;;45.00;27.10;;;;;;5026103;28;19914;-84
2021/04/15 07:04:01;;;;;;;;;;;45.30;27.20;;;;;;5017808;28;19917;-84
2021/04/15 07:06:45;;;;;;;;;;;45.60;27.10;;;;;;5023402;28;19914;-85
2021/04/15 07:09:30;;;;;;;;;;;45.90;27.00;;;;;;5007199;28;20393;-86
2021/04/15 07:12:14;;;;;;;;;;;46.20;27.00;;;;;;5023775;28;19913;-86
2021/04/15 07:14:48;;;;;;;;;;;46.40;27.00;;;;;;5040755;28;20281;-85
2021/04/15 07:17:13;;;;;;;;;;;46.30;26.90;;;;;;5028954;28;19922;-85
2021/04/15 07:19:51;;;;;;;;;;;46.30;26.90;;;;;;5022696;28;19920;-84
2021/04/15 07:22:22;;;;;;;;;;;46.30;26.80;;;;;;5018420;28;20354;-85
2021/04/15 07:24:55;;;;;;;;;;;46.30;26.90;;;;;;5021772;28;19917;-87
2021/04/15 07:27:39;;;;;;;;;;;46.40;26.90;;;;;;5019516;28;19913;-86
2021/04/15 07:30:10;;;;;;;;;;;46.30;26.70;;;;;;5005553;28;19949;-86
2021/04/15 07:32:39;;;;;;;;;;;45.80;26.40;;;;;;5017695;28;19913;-85
2021/04/15 07:35:22;;;;;;;;;;;45.60;26.40;;;;;;5021739;28;20008;-85
2021/04/15 07:37:56;;;;;;;;;;;45.80;26.30;;;;;;5016257;28;19921;-85
2021/04/15 07:40:22;;;;;;;;;;;45.90;26.50;;;;;;5027787;28;19918;-85
2021/04/15 07:42:55;;;;;;;;;;;46.30;26.50;;;;;;5022542;28;20019;-85
2021/04/15 07:45:21;;;;;;;;;;;46.50;26.10;;;;;;5027236;28;19972;-84
2021/04/15 07:48:05;;;;;;;;;;;46.10;26.00;;;;;;5026717;28;19913;-84
2021/04/15 07:50:42;;;;;;;;;;;46.10;26.10;;;;;;5027803;28;20369;-85
2021/04/15 07:53:17;;;;;;;;;;;46.50;26.10;;;;;;5008859;28;20173;-86
2021/04/15 07:55:51;;;;;;;;;;;46.20;25.10;;;;;;5008485;28;19929;-85
2021/04/15 07:58:35;;;;;;;;;;;45.90;25.20;;;;;;5024800;28;19913;-85
2021/04/15 08:01:08;;;;;;;;;;;45.60;24.90;;;;;;5028738;28;19909;-84
2021/04/15 08:03:37;;;;;;;;;;;45.10;25.10;;;;;;5026788;28;19917;-88
2021/04/15 08:06:05;;;;;;;;;;;45.40;25.00;;;;;;5008821;28;19914;-86
2021/04/15 08:08:36;;;;;;;;;;;45.50;24.80;;;;;;5026480;28;20281;-85
2021/04/15 08:11:08;;;;;;;;;;;45.40;24.60;;;;;;5026710;28;19952;-84
2021/04/15 08:13:33;;;;;;;;;;;45.20;24.50;;;;;;5027427;28;19913;-85
2021/04/15 08:16:18;;;;;;;;;;;45.10;24.30;;;;;;5027142;28;19910;-84
2021/04/15 08:18:43;;;;;;;;;;;44.80;23.90;;;;;;5026814;28;20157;-85
2021/04/15 08:21:11;;;;;;;;;;;44.30;23.90;;;;;;5025823;28;19913;-84
2021/04/15 08:23:55;;;;;;;;;;;44.00;23.60;;;;;;5010379;28;19916;-84
2021/04/15 08:26:50;;;;;;;;;;;40.00;23.70;;;;;;5022458;28;19936;-85
2021/04/15 08:29:41;;;;;;;;;;;37.60;25.50;;;;;;5019712;28;19913;-84
2021/04/15 08:32:30;;;;;;;;;;;38.70;25.20;;;;;;4995598;28;19913;-84
2021/04/15 08:35:03;;;;;;;;;;;39.10;25.20;;;;;;4990660;28;19913;-85
2021/04/15 08:37:42;;;;;;;;;;;41.20;24.80;;;;;;5006209;28;20004;-84
2021/04/15 08:40:26;;;;;;;;;;;41.20;25.30;;;;;;5006654;28;19909;-86
2021/04/15 08:43:00;;;;;;;;;;;41.10;25.00;;;;;;5021852;28;19910;-85
2021/04/15 08:45:38;;;;;;;;;;;41.20;24.80;;;;;;5027090;28;19989;-85
2021/04/15 08:48:06;;;;;;;;;;;42.00;25.00;;;;;;5009850;28;20524;-83
2021/04/15 08:50:52;;;;;;;;;;;38.50;24.90;;;;;;5009397;28;19913;-84
2021/04/15 08:53:41;;;;;;;;;;;35.60;26.50;;;;;;5009349;28;19940;-83
2021/04/15 08:56:12;;;;;;;;;;;33.40;27.40;;;;;;4990728;28;20366;-85
2021/04/15 08:59:01;;;;;;;;;;;30.60;28.50;;;;;;5024409;28;19909;-84
2021/04/15 09:01:36;;;;;;;;;;;28.30;29.80;;;;;;5027699;28;19920;-85
2021/04/15 09:04:03;;;;;;;;;;;26.00;30.00;;;;;;5027963;28;19950;-84
2021/04/15 09:06:47;;;;;;;;;;;24.20;30.80;;;;;;5011025;28;19913;-84
2021/04/15 09:09:36;;;;;;;;;;;22.90;31.20;;;;;;5028339;28;19984;-84
2021/04/15 09:12:14;;;;;;;;;;;22.00;31.50;;;;;;5011644;28;19916;-85
2021/04/15 09:14:51;;;;;;;;;;;21.80;31.30;;;;;;5030082;28;19948;-86
2021/04/15 09:17:28;;;;;;;;;;;21.10;31.60;;;;;;5029887;28;19893;-85
2021/04/15 09:20:03;;;;;;;;;;;20.30;31.70;;;;;;5030421;28;19976;-84
2021/04/15 09:22:31;;;;;;;;;;;19.60;31.80;;;;;;5030312;28;19980;-85
2021/04/15 09:25:04;;;;;;;;;;;19.30;32.10;;;;;;5037370;28;19913;-85
2021/04/15 09:27:36;;;;;;;;;;;19.00;31.90;;;;;;5043324;28;19916;-85
2021/04/15 09:30:21;;;;;;;;;;;19.00;31.70;;;;;;5049886;28;19913;-85
2021/04/15 09:32:49;;;;;;;;;;;19.90;31.90;;;;;;5050036;28;19944;-84
2021/04/15 09:35:32;;;;;;;;;;;24.10;30.80;;;;;;5047582;28;20015;-86
2021/04/15 09:38:16;;;;;;;;;;;27.20;29.30;;;;;;5047979;28;19916;-85
2021/04/15 09:40:42;;;;;;;;;;;27.10;28.60;;;;;;5049042;28;19909;-86
2021/04/15 09:43:16;;;;;;;;;;;25.80;29.30;;;;;;5049448;28;19916;-86
2021/04/15 09:46:11;;;;;;;;;;;24.60;29.80;;;;;;5049926;28;19952;-86
2021/04/15 09:48:56;;;;;;;;;;;23.40;30.10;;;;;;5031509;28;19940;-86
2021/04/15 09:51:39;;;;;;;;;;;22.40;30.40;;;;;;5049428;28;20392;-85
2021/04/15 09:54:23;;;;;;;;;;;21.50;30.60;;;;;;5048887;28;19997;-85
2021/04/15 09:57:07;;;;;;;;;;;20.90;31.00;;;;;;5046801;28;19936;-86
2021/04/15 09:59:49;;;;;;;;;;;22.10;31.50;;;;;;5029083;28;19909;-86
2021/04/15 10:02:25;;;;;;;;;;;25.60;30.00;;;;;;5009984;28;19910;-85
2021/04/15 10:04:56;;;;;;;;;;;26.20;29.00;;;;;;5028391;28;19958;-84
2021/04/15 10:07:25;;;;;;;;;;;25.00;29.50;;;;;;5028251;28;19920;-85
2021/04/15 10:09:58;;;;;;;;;;;23.80;30.30;;;;;;5028830;28;19977;-85
2021/04/15 10:12:26;;;;;;;;;;;22.70;30.10;;;;;;5010794;28;20417;-85
2021/04/15 10:15:14;;;;;;;;;;;21.80;30.50;;;;;;5028634;28;19916;-85
2021/04/15 10:17:46;;;;;;;;;;;21.90;30.90;;;;;;5010142;28;19909;-85
2021/04/15 10:20:26;;;;;;;;;;;24.30;30.20;;;;;;5010571;28;19909;-86
2021/04/15 10:23:10;;;;;;;;;;;26.10;29.60;;;;;;5028789;28;20269;-85
2021/04/15 10:25:44;;;;;;;;;;;28.00;29.10;;;;;;5033748;28;19913;-85
2021/04/15 10:28:14;;;;;;;;;;;29.80;28.50;;;;;;5046875;28;19939;-85
2021/04/15 10:30:39;;;;;;;;;;;31.30;28.10;;;;;;5044872;28;19909;-85
2021/04/15 10:33:11;;;;;;;;;;;32.50;27.80;;;;;;5045245;28;19916;-87
2021/04/15 10:35:55;;;;;;;;;;;33.40;27.40;;;;;;5046198;28;19917;-85
2021/04/15 10:38:31;;;;;;;;;;;34.10;27.20;;;;;;5045584;28;19913;-85
2021/04/15 10:40:59;;;;;;;;;;;34.20;27.00;;;;;;5048199;28;20000;-86
2021/04/15 10:43:52;;;;;;;;;;;32.40;27.40;;;;;;5048080;28;19913;-85
2021/04/15 10:46:23;;;;;;;;;;;30.60;28.10;;;;;;5050297;28;20299;-84
2021/04/15 10:48:48;;;;;;;;;;;28.50;28.90;;;;;;5050401;28;20015;-85
2021/04/15 10:51:16;;;;;;;;;;;27.10;29.60;;;;;;5050626;28;19909;-83
2021/04/15 10:53:48;;;;;;;;;;;26.10;30.00;;;;;;5049843;28;19909;-85
2021/04/15 10:56:23;;;;;;;;;;;28.10;29.30;;;;;;5030201;28;19916;-86
2021/04/15 10:58:51;;;;;;;;;;;29.70;27.90;;;;;;5031309;28;19917;-86
2021/04/15 11:01:25;;;;;;;;;;;28.30;28.30;;;;;;5030537;28;19910;-83
2021/04/15 11:03:56;;;;;;;;;;;27.10;28.90;;;;;;5029633;28;19945;-85
2021/04/15 11:06:47;;;;;;;;;;;25.90;29.00;;;;;;5030941;28;20475;-85
2021/04/15 11:09:22;;;;;;;;;;;26.40;29.50;;;;;;5028229;28;19960;-85
2021/04/15 11:11:53;;;;;;;;;;;26.60;29.20;;;;;;5029885;28;19960;-85
2021/04/15 11:14:19;;;;;;;;;;;28.70;28.60;;;;;;5028885;28;19910;-86
2021/04/15 11:16:48;;;;;;;;;;;29.50;28.30;;;;;;5028373;28;20385;-86
2021/04/15 11:19:14;;;;;;;;;;;29.90;27.80;;;;;;5028868;28;19909;-85
2021/04/15 11:21:40;;;;;;;;;;;29.30;27.90;;;;;;5029432;28;19909;-84
2021/04/15 11:24:21;;;;;;;;;;;27.70;28.30;;;;;;5032619;28;19944;-86
2021/04/15 11:26:48;;;;;;;;;;;28.80;28.60;;;;;;5039720;28;19947;-85
2021/04/15 11:29:21;;;;;;;;;;;28.10;28.20;;;;;;5031857;28;19909;-86
2021/04/15 11:31:47;;;;;;;;;;;26.70;28.70;;;;;;5049023;28;19937;-84
2021/04/15 11:34:23;;;;;;;;;;;25.30;29.10;;;;;;5050071;28;19910;-85
2021/04/15 11:37:07;;;;;;;;;;;24.30;29.30;;;;;;5050184;28;19909;-85
2021/04/15 11:39:36;;;;;;;;;;;23.40;29.50;;;;;;5047957;28;19909;-84
2021/04/15 11:42:09;;;;;;;;;;;22.70;29.60;;;;;;5044635;28;19944;-85
2021/04/15 11:44:35;;;;;;;;;;;22.70;29.70;;;;;;5015284;28;19913;-85
2021/04/15 11:47:12;;;;;;;;;;;23.00;29.70;;;;;;5031037;28;19909;-85
2021/04/15 11:49:38;;;;;;;;;;;23.20;29.50;;;;;;5030208;28;20148;-84
2021/04/15 11:52:21;;;;;;;;;;;22.70;29.50;;;;;;5031862;28;19913;-85
2021/04/15 11:54:53;;;;;;;;;;;22.20;29.50;;;;;;5031514;28;19917;-85
2021/04/15 11:57:18;;;;;;;;;;;22.60;29.80;;;;;;5030469;28;20008;-86
2021/04/15 11:59:44;;;;;;;;;;;23.60;29.40;;;;;;5030249;28;19916;-87
2021/04/15 12:02:14;;;;;;;;;;;25.00;28.90;;;;;;5029893;28;19913;-86
2021/04/15 12:04:40;;;;;;;;;;;25.40;28.40;;;;;;5029369;28;19977;-86
2021/04/15 12:07:12;;;;;;;;;;;24.70;28.60;;;;;;5010761;28;20393;-85
2021/04/15 12:09:38;;;;;;;;;;;24.20;28.80;;;;;;5027930;28;19932;-85
2021/04/15 12:12:07;;;;;;;;;;;25.50;28.80;;;;;;5027915;28;19925;-85
2021/04/15 12:14:34;;;;;;;;;;;26.10;28.20;;;;;;5029736;28;19910;-86
2021/04/15 12:17:00;;;;;;;;;;;25.20;28.60;;;;;;5028504;28;20370;-85
2021/04/15 12:19:46;;;;;;;;;;;24.30;29.00;;;;;;5011584;28;19952;-85
2021/04/15 12:22:28;;;;;;;;;;;23.30;29.20;;;;;;5010463;28;19909;-84
2021/04/15 12:24:57;;;;;;;;;;;22.40;29.40;;;;;;5037145;28;19952;-85
2021/04/15 12:27:27;;;;;;;;;;;21.40;29.50;;;;;;5037561;28;20171;-85
2021/04/15 12:30:07;;;;;;;;;;;20.70;29.70;;;;;;5028782;28;20004;-84
2021/04/15 12:32:33;;;;;;;;;;;20.20;29.90;;;;;;5029547;28;19941;-81
2021/04/15 12:35:14;;;;;;;;;;;20.00;30.00;;;;;;5028058;28;19921;-85
2021/04/15 12:37:42;;;;;;;;;;;20.70;30.00;;;;;;5027668;28;19920;-86
2021/04/15 12:40:13;;;;;;;;;;;22.50;29.40;;;;;;5029477;28;19914;-85
2021/04/15 12:42:41;;;;;;;;;;;24.10;28.80;;;;;;5028344;28;19910;-86
2021/04/15 12:45:27;;;;;;;;;;;25.30;28.30;;;;;;5010558;28;19917;-85
2021/04/15 12:47:56;;;;;;;;;;;26.20;28.00;;;;;;5026526;28;19976;-85
2021/04/15 12:50:21;;;;;;;;;;;26.80;27.60;;;;;;5007849;28;19914;-85
2021/04/15 12:52:48;;;;;;;;;;;26.30;27.40;;;;;;5022599;28;20002;-84
2021/04/15 12:55:15;;;;;;;;;;;24.90;27.90;;;;;;5005184;28;20275;-86
2021/04/15 12:57:41;;;;;;;;;;;23.70;28.40;;;;;;5028243;28;19956;-85
2021/04/15 13:00:09;;;;;;;;;;;22.90;28.60;;;;;;5028785;28;19909;-85
2021/04/15 13:02:36;;;;;;;;;;;21.90;28.70;;;;;;5028374;28;19921;-84
2021/04/15 13:05:06;;;;;;;;;;;21.00;28.60;;;;;;5028956;28;20270;-85
2021/04/15 13:07:35;;;;;;;;;;;20.90;29.00;;;;;;5027709;28;19917;-85
2021/04/15 13:10:12;;;;;;;;;;;21.30;28.80;;;;;;5010775;28;19940;-85
2021/04/15 13:12:38;;;;;;;;;;;21.70;28.20;;;;;;5027381;28;19917;-85
2021/04/15 13:15:05;;;;;;;;;;;21.90;27.90;;;;;;5011600;28;20047;-85
2021/04/15 13:17:51;;;;;;;;;;;22.00;27.90;;;;;;5009981;28;19918;-85
2021/04/15 13:20:20;;;;;;;;;;;21.60;27.60;;;;;;5010408;28;19924;-84
2021/04/15 13:22:55;;;;;;;;;;;20.60;28.20;;;;;;5028515;28;19968;-85
2021/04/15 13:25:29;;;;;;;;;;;19.80;27.90;;;;;;5036029;28;19920;-85
2021/04/15 13:27:58;;;;;;;;;;;19.30;28.10;;;;;;5028703;28;19914;-85
2021/04/15 13:30:25;;;;;;;;;;;18.80;28.20;;;;;;5028033;28;20001;-84
2021/04/15 13:33:07;;;;;;;;;;;18.50;28.30;;;;;;5010845;28;19917;-85
2021/04/15 13:35:56;;;;;;;;;;;18.80;28.50;;;;;;5027598;28;19909;-85
2021/04/15 13:41:22;;;;;;;;;;;21.40;28.30;;;;;;5023484;28;19916;-85
2021/04/15 13:43:58;;;;;;;;;;;22.20;27.90;;;;;;5010236;28;19918;-84
2021/04/15 13:46:29;;;;;;;;;;;22.20;27.60;;;;;;5008219;28;19937;-85
2021/04/15 13:49:19;;;;;;;;;;;21.30;27.40;;;;;;5025588;28;19917;-85
2021/04/15 13:51:48;;;;;;;;;;;20.40;27.80;;;;;;5007774;28;19914;-84
2021/04/15 13:54:13;;;;;;;;;;;19.70;28.00;;;;;;5008221;28;19917;-86
2021/04/15 13:56:42;;;;;;;;;;;19.40;28.20;;;;;;5030388;28;19913;-87
2021/04/15 13:59:27;;;;;;;;;;;19.60;28.30;;;;;;5032245;28;19914;-85
2021/04/15 14:01:55;;;;;;;;;;;20.40;28.30;;;;;;5012521;28;19914;-85
2021/04/15 14:04:39;;;;;;;;;;;20.70;28.20;;;;;;5012563;28;19914;-85
2021/04/15 14:07:23;;;;;;;;;;;20.50;28.10;;;;;;5016199;28;19913;-85
2021/04/15 14:10:07;;;;;;;;;;;20.10;28.00;;;;;;5032249;28;19956;-85
2021/04/15 14:12:40;;;;;;;;;;;19.60;28.20;;;;;;5014913;28;19913;-85
2021/04/15 14:15:24;;;;;;;;;;;18.90;28.10;;;;;;5032899;28;20443;-84
2021/04/15 14:17:52;;;;;;;;;;;18.20;28.10;;;;;;5032057;28;19914;-84
2021/04/15 14:20:20;;;;;;;;;;;17.60;28.20;;;;;;5031981;28;19956;-85
2021/04/15 14:22:46;;;;;;;;;;;17.10;28.40;;;;;;5032800;28;19940;-86
2021/04/15 14:25:18;;;;;;;;;;;16.80;28.50;;;;;;5041236;28;19908;-84
2021/04/15 14:27:43;;;;;;;;;;;16.50;28.60;;;;;;5042569;28;19917;-86
2021/04/15 14:30:14;;;;;;;;;;;16.30;28.70;;;;;;5031842;28;19909;-84
2021/04/15 14:32:40;;;;;;;;;;;16.20;28.80;;;;;;5031145;28;19921;-85
2021/04/15 14:35:14;;;;;;;;;;;16.10;28.90;;;;;;5028672;28;19913;-86
2021/04/15 14:37:39;;;;;;;;;;;16.10;28.90;;;;;;5028814;28;19937;-85
2021/04/15 14:40:25;;;;;;;;;;;16.00;28.90;;;;;;5023901;28;19914;-86
2021/04/15 14:42:51;;;;;;;;;;;16.10;29.00;;;;;;5020979;28;19917;-86
2021/04/15 14:45:19;;;;;;;;;;;16.10;29.40;;;;;;5001234;28;19917;-85
2021/04/15 14:47:50;;;;;;;;;;;16.10;29.00;;;;;;5024626;28;19917;-86
2021/04/15 14:50:32;;;;;;;;;;;16.20;29.10;;;;;;5008515;28;19913;-86
2021/04/15 14:53:16;;;;;;;;;;;16.40;29.00;;;;;;5028713;28;19940;-85
2021/04/15 14:55:43;;;;;;;;;;;16.50;28.90;;;;;;5026937;28;19917;-83
2021/04/15 14:58:12;;;;;;;;;;;16.80;29.00;;;;;;5024956;28;20377;-86
2021/04/15 15:00:43;;;;;;;;;;;16.90;28.90;;;;;;5009386;28;19940;-86
2021/04/15 15:03:08;;;;;;;;;;;17.00;28.90;;;;;;5028338;28;19936;-86
2021/04/15 15:05:39;;;;;;;;;;;17.10;28.90;;;;;;5028608;28;19913;-84
2021/04/15 15:08:05;;;;;;;;;;;17.20;28.90;;;;;;5027091;28;19960;-86
2021/04/15 15:10:30;;;;;;;;;;;17.30;28.90;;;;;;5030316;28;19909;-85
2021/04/15 15:12:57;;;;;;;;;;;17.40;28.90;;;;;;5010185;28;19932;-86
2021/04/15 15:15:23;;;;;;;;;;;17.50;28.90;;;;;;5021706;28;19909;-86
2021/04/15 15:17:55;;;;;;;;;;;17.60;28.90;;;;;;5017266;28;19957;-87
2021/04/15 15:20:26;;;;;;;;;;;17.60;28.90;;;;;;5016082;28;19921;-88
2021/04/15 15:23:09;;;;;;;;;;;17.60;29.00;;;;;;4998821;28;20336;-86
2021/04/15 15:25:36;;;;;;;;;;;17.70;29.10;;;;;;4998366;28;19918;-87